Saturday, November 18, 2017, 9:32 PM GMT
Back to Local

CWDQ, La Tuque

Location: , , Canada Lat: 47.417
Local Time: 9:32 PM GMT (21:32 GMT) Lon: -72.8
Time Zone: GMT Elev: 554 ft

Show me the last for .
Show Coded

Time T Td Feel RH Dir Speed Gust Alt SLP Vis Weather Sky Remarks
2017-11-18 21:00 24 17 - 74 290° 1 - - 29.64 0 None
2017-11-18 20:00 23 16 - 75 290° 1 - - 29.65 0 None
2017-11-18 19:00 22 15 - 73 30° 1 - - 29.70 0 None
2017-11-18 18:00 21 15 - 75 280° 1 - - 29.76 0 None
2017-11-18 17:00 20 13 - 75 250° 1 - - 29.80 0 None
2017-11-18 16:00 19 15 13 84 290° 3 - - 29.84 0 None
2017-11-18 15:00 17 11 - 77 260° 2 - - 29.86 0 None
2017-11-18 14:00 16 10 10 77 190° 3 - - 29.90 0 None
2017-11-18 13:00 14 9 - 79 300° 2 - - 29.94 0 None
2017-11-18 12:00 14 9 8 81 340° 3 - - 29.97 0 None
2017-11-18 11:00 13 9 - 81 70° 2 - - 29.98 0 None
2017-11-18 10:00 13 9 - 82 80° 2 - - 29.98 0 None
2017-11-18 09:00 14 10 9 83 20° 3 - - 29.99 0 None
2017-11-18 08:00 15 10 - 82 20° 1 - - 30.01 0 None
2017-11-18 07:00 15 11 9 81 360° 3 - - 30.02 0 None
2017-11-18 06:00 15 11 8 81 360° 5 - - 30.04 0 None
2017-11-18 05:00 16 11 10 80 10° 3 - - 30.04 0 None
2017-11-18 04:00 19 12 10 74 300° 6 - - 30.06 0 None
2017-11-18 03:00 17 12 10 80 320° 5 - - 30.05 0 None
2017-11-18 02:00 17 13 8 82 310° 6 - - 30.08 0 None
2017-11-18 01:00 17 13 9 82 310° 6 - - 30.06 0 None
2017-11-18 00:00 18 13 7 80 320° 8 - - 30.07 0 None
2017-11-17 23:00 20 13 10 76 320° 8 - - 30.06 0 None
2017-11-17 22:00 21 14 11 72 330° 9 - - 30.04 0 None

Support USWX by starting your Amazon purchase here.